No.3tokuyomaru — JD3132 — position and weather

sailwx.info

Track history (hours):
 
Tides and Currents Weather Stations Pressure Air Temp Water Temp Dewpoint Dewpoint Depression Visibility Wind Speed Wind Dir Waves Ship Positions

No.3tokuyomaru

Last reported at 2017-Oct-17 13:46 UTC. Time now 2017-Oct-18 22:25 UTC.
Position N 34°52' E 139°48'.

Length 67 m; draft 4.1 m.

Type: Tanker. MMSI: 431002151.

Date/timePositionNaut miles runAvg speedWind from/ knotsBaromVisibWave heightAir tempDewpointWater temp
2017-Oct-17 13:46N 34°52' E 139°48'612.9
2017-Oct-17 13:19N 34°57' E 139°44'413.7
2017-Oct-17 13:01N 35°01' E 139°44'713.3
2017-Oct-17 12:30N 35°08' E 139°45'713.6
2017-Oct-17 12:00N 35°14' E 139°47'613.1
2017-Oct-17 11:31N 35°20' E 139°43'612.2
2017-Oct-17 11:00N 35°26' E 139°45'4 9.0
2017-Oct-17 10:31N 35°29' E 139°49'0 0.1
2017-Oct-17 09:58N 35°29' E 139°49'0 0.0
2017-Oct-17 09:28N 35°29' E 139°49'0 0.0
2017-Oct-17 08:49N 35°29' E 139°49'0 0.0
2017-Oct-17 08:28N 35°29' E 139°49'0 0.1
2017-Oct-17 07:55N 35°29' E 139°49'0 0.0
2017-Oct-17 07:28N 35°29' E 139°49'0 0.0
2017-Oct-17 06:58N 35°29' E 139°49'0 0.0
2017-Oct-17 06:28N 35°29' E 139°49'0 0.0
2017-Oct-17 05:55N 35°29' E 139°49'0 0.0
2017-Oct-17 05:28N 35°29' E 139°49'0 0.0
2017-Oct-17 04:58N 35°29' E 139°49'0 0.0
2017-Oct-17 04:28N 35°29' E 139°49'0 0.0
2017-Oct-17 03:52N 35°29' E 139°49'0 0.0
2017-Oct-17 03:07N 35°29' E 139°49'0 0.5
2017-Oct-17 03:00N 35°29' E 139°49'3 0.6
2017-Oct-16 22:17N 35°31' E 139°46'0 0.9
2017-Oct-16 22:00N 35°31' E 139°46'3 5.6
2017-Oct-16 21:30N 35°29' E 139°49'0 0.0
2017-Oct-16 20:55N 35°29' E 139°49'0 0.0
2017-Oct-16 20:28N 35°29' E 139°49'0 0.0
2017-Oct-16 19:58N 35°29' E 139°49'0 0.0
2017-Oct-16 19:28N 35°29' E 139°49'0 0.0
2017-Oct-16 18:58N 35°29' E 139°49'0 0.0
2017-Oct-16 18:28N 35°29' E 139°49'0 0.0
2017-Oct-16 17:58N 35°29' E 139°49'0 0.0
2017-Oct-16 17:16N 35°29' E 139°49'0 0.0
2017-Oct-16 16:55N 35°29' E 139°49'0 0.0
2017-Oct-16 16:25N 35°29' E 139°49'0 0.0
2017-Oct-16 15:58N 35°29' E 139°49'0 0.0
2017-Oct-16 15:28N 35°29' E 139°49'0 0.0
2017-Oct-16 14:49N 35°29' E 139°49'0 0.0
2017-Oct-16 14:28N 35°29' E 139°49'0 0.0
2017-Oct-16 13:25N 35°29' E 139°49'0 0.0
2017-Oct-16 12:55N 35°29' E 139°49'0 0.0
2017-Oct-16 10:40N 35°29' E 139°49'0 0.0
2017-Oct-16 10:28N 35°29' E 139°49'0 0.0
2017-Oct-16 09:49N 35°29' E 139°49'0 0.0
2017-Oct-16 09:25N 35°29' E 139°49'0 0.0
2017-Oct-16 07:58N 35°29' E 139°49'3 6.4
2017-Oct-16 07:30N 35°30' E 139°53'1 0.1
2017-Oct-15 12:46N 35°29' E 139°52'312.1
2017-Oct-15 12:30N 35°27' E 139°49'611.7
2017-Oct-15 12:00N 35°22' E 139°45'611.1
2017-Oct-15 11:30N 35°17' E 139°46'510.8
2017-Oct-15 11:00N 35°11' E 139°46'611.3
2017-Oct-15 10:31N 35°06' E 139°44'611.6
2017-Oct-15 10:00N 35°02' E 139°39'612.2
2017-Oct-15 09:30N 34°58' E 139°33'  
Track history (hours):
 
Tides and Currents Weather Stations Pressure Air Temp Water Temp Dewpoint Dewpoint Depression Visibility Wind Speed Wind Dir Waves Ship Positions

No.3tokuyomaru

Last reported at 2017-Oct-17 13:46 UTC. Time now 2017-Oct-18 22:25 UTC.
Position N 34°52' E 139°48'.

Length 67 m; draft 4.1 m.

Type: Tanker. MMSI: 431002151.

Date/timePositionNaut miles runAvg speedWind from/ knotsBaromVisibWave heightAir tempDewpointWater temp
2017-Oct-17 13:46N 34°52' E 139°48'612.9
2017-Oct-17 13:19N 34°57' E 139°44'413.7
2017-Oct-17 13:01N 35°01' E 139°44'713.3
2017-Oct-17 12:30N 35°08' E 139°45'713.6
2017-Oct-17 12:00N 35°14' E 139°47'613.1
2017-Oct-17 11:31N 35°20' E 139°43'612.2
2017-Oct-17 11:00N 35°26' E 139°45'4 9.0
2017-Oct-17 10:31N 35°29' E 139°49'0 0.1
2017-Oct-17 09:58N 35°29' E 139°49'0 0.0
2017-Oct-17 09:28N 35°29' E 139°49'0 0.0
2017-Oct-17 08:49N 35°29' E 139°49'0 0.0
2017-Oct-17 08:28N 35°29' E 139°49'0 0.1
2017-Oct-17 07:55N 35°29' E 139°49'0 0.0
2017-Oct-17 07:28N 35°29' E 139°49'0 0.0
2017-Oct-17 06:58N 35°29' E 139°49'0 0.0
2017-Oct-17 06:28N 35°29' E 139°49'0 0.0
2017-Oct-17 05:55N 35°29' E 139°49'0 0.0
2017-Oct-17 05:28N 35°29' E 139°49'0 0.0
2017-Oct-17 04:58N 35°29' E 139°49'0 0.0
2017-Oct-17 04:28N 35°29' E 139°49'0 0.0
2017-Oct-17 03:52N 35°29' E 139°49'0 0.0
2017-Oct-17 03:07N 35°29' E 139°49'0 0.5
2017-Oct-17 03:00N 35°29' E 139°49'3 0.6
2017-Oct-16 22:17N 35°31' E 139°46'0 0.9
2017-Oct-16 22:00N 35°31' E 139°46'3 5.6
2017-Oct-16 21:30N 35°29' E 139°49'0 0.0
2017-Oct-16 20:55N 35°29' E 139°49'0 0.0
2017-Oct-16 20:28N 35°29' E 139°49'0 0.0
2017-Oct-16 19:58N 35°29' E 139°49'0 0.0
2017-Oct-16 19:28N 35°29' E 139°49'0 0.0
2017-Oct-16 18:58N 35°29' E 139°49'0 0.0
2017-Oct-16 18:28N 35°29' E 139°49'0 0.0
2017-Oct-16 17:58N 35°29' E 139°49'0 0.0
2017-Oct-16 17:16N 35°29' E 139°49'0 0.0
2017-Oct-16 16:55N 35°29' E 139°49'0 0.0
2017-Oct-16 16:25N 35°29' E 139°49'0 0.0
2017-Oct-16 15:58N 35°29' E 139°49'0 0.0
2017-Oct-16 15:28N 35°29' E 139°49'0 0.0
2017-Oct-16 14:49N 35°29' E 139°49'0 0.0
2017-Oct-16 14:28N 35°29' E 139°49'0 0.0
2017-Oct-16 13:25N 35°29' E 139°49'0 0.0
2017-Oct-16 12:55N 35°29' E 139°49'0 0.0
2017-Oct-16 10:40N 35°29' E 139°49'0 0.0
2017-Oct-16 10:28N 35°29' E 139°49'0 0.0
2017-Oct-16 09:49N 35°29' E 139°49'0 0.0
2017-Oct-16 09:25N 35°29' E 139°49'0 0.0
2017-Oct-16 07:58N 35°29' E 139°49'3 6.4
2017-Oct-16 07:30N 35°30' E 139°53'1 0.1
2017-Oct-15 12:46N 35°29' E 139°52'312.1
2017-Oct-15 12:30N 35°27' E 139°49'611.7
2017-Oct-15 12:00N 35°22' E 139°45'611.1
2017-Oct-15 11:30N 35°17' E 139°46'510.8
2017-Oct-15 11:00N 35°11' E 139°46'611.3
2017-Oct-15 10:31N 35°06' E 139°44'611.6
2017-Oct-15 10:00N 35°02' E 139°39'612.2
2017-Oct-15 09:30N 34°58' E 139°33'  

Dump ship's entire track history